createdAt,value
2022-08-24T05:43:11.568Z,13.60
2022-08-24T05:45:44.393Z,13.20
2022-08-24T05:48:11.220Z,13.90
2022-08-24T05:50:39.911Z,14.30
2022-08-24T05:53:06.931Z,14.30
2022-08-24T05:55:35.294Z,14.50
2022-08-24T05:58:01.847Z,14.60
2022-08-24T06:00:28.952Z,14.80
2022-08-24T06:02:56.308Z,14.80
2022-08-24T06:05:23.040Z,15.70
2022-08-24T06:07:49.936Z,15.00
2022-08-24T06:10:35.946Z,14.90
2022-08-24T06:15:30.293Z,15.90
2022-08-24T06:17:56.976Z,15.90
2022-08-24T06:20:23.663Z,16.00
2022-08-24T06:22:50.403Z,16.20
2022-08-24T06:25:35.882Z,16.90
2022-08-24T06:28:02.568Z,16.80
2022-08-24T06:30:30.205Z,16.80
2022-08-24T06:33:01.075Z,16.80
2022-08-24T06:35:27.746Z,16.60
2022-08-24T06:37:56.513Z,16.70
2022-08-24T06:40:24.746Z,16.40
2022-08-24T06:42:51.750Z,17.10
2022-08-24T06:45:18.749Z,17.20
2022-08-24T06:47:45.778Z,17.70
2022-08-24T06:50:12.785Z,17.70
2022-08-24T07:02:28.336Z,18.40
2022-08-24T07:04:55.038Z,18.30
2022-08-24T07:09:49.086Z,18.50
2022-08-24T07:12:15.778Z,19.90
2022-08-24T07:17:09.911Z,18.90
2022-08-24T07:24:32.300Z,19.60
2022-08-24T07:26:58.974Z,19.90
2022-08-24T07:29:46.987Z,20.10
2022-08-24T07:34:39.260Z,20.40
2022-08-24T07:37:06.020Z,20.60
2022-08-24T07:39:32.672Z,20.70
2022-08-24T07:42:12.974Z,20.90
2022-08-24T07:44:40.600Z,21.10
2022-08-24T07:47:34.421Z,19.80
2022-08-24T07:49:54.128Z,21.60
2022-08-24T07:52:20.860Z,23.00
2022-08-24T07:54:47.524Z,23.30
2022-08-24T07:57:14.258Z,21.10
2022-08-24T07:59:40.906Z,22.60
2022-08-24T08:02:08.340Z,22.00
2022-08-24T08:04:35.012Z,22.30
2022-08-24T08:07:01.927Z,22.50
2022-08-24T08:09:29.289Z,21.80
2022-08-24T08:11:55.989Z,22.60
2022-08-24T08:14:22.642Z,22.70
2022-08-24T08:16:49.969Z,22.80
2022-08-24T08:19:16.709Z,23.00
2022-08-24T08:22:05.191Z,22.70
2022-08-24T08:24:31.831Z,23.30
2022-08-24T08:26:59.361Z,22.90
2022-08-24T08:29:26.769Z,23.70
2022-08-24T08:31:53.562Z,23.80
2022-08-24T08:34:20.226Z,23.50
2022-08-24T08:36:47.174Z,24.30
2022-08-24T08:39:15.745Z,23.10
2022-08-24T08:42:01.143Z,23.40
2022-08-24T08:49:22.131Z,24.20
2022-08-24T08:51:48.738Z,24.30
2022-08-24T08:54:35.674Z,24.50
2022-08-24T08:57:17.432Z,24.60
2022-08-24T08:59:47.822Z,24.50
2022-08-24T09:02:25.146Z,24.40
2022-08-24T09:05:05.223Z,24.40
2022-08-24T09:15:08.275Z,24.90
2022-08-24T09:17:38.572Z,24.90
2022-08-24T09:20:11.290Z,25.20
2022-08-24T09:22:43.435Z,25.40
2022-08-24T09:25:10.098Z,25.40
2022-08-24T09:27:55.851Z,26.20
2022-08-24T09:30:26.687Z,25.60
2022-08-24T09:33:00.097Z,25.30
2022-08-24T09:35:27.226Z,25.20
2022-08-24T09:38:00.810Z,26.40
2022-08-24T09:40:35.591Z,25.30
2022-08-24T09:43:17.544Z,25.50
2022-08-24T09:45:55.106Z,25.50
2022-08-24T09:48:24.831Z,25.40
2022-08-24T09:51:11.290Z,25.90
2022-08-24T09:53:47.137Z,25.80
2022-08-24T09:56:19.989Z,26.00
2022-08-24T09:58:54.672Z,26.10
2022-08-24T10:01:24.397Z,26.20
2022-08-24T10:04:15.195Z,26.40
2022-08-24T10:06:53.358Z,26.40
2022-08-24T10:09:24.131Z,26.10
2022-08-24T10:12:00.317Z,26.20
2022-08-24T10:14:39.173Z,26.40
2022-08-24T10:17:24.558Z,26.50
2022-08-24T10:20:00.439Z,26.60
2022-08-24T10:22:37.913Z,26.70
2022-08-24T10:25:04.666Z,26.70
2022-08-24T10:27:31.252Z,27.20
2022-08-24T10:30:00.895Z,27.60
2022-08-24T10:32:46.057Z,27.70
2022-08-24T10:43:07.344Z,28.80
2022-08-24T10:45:52.501Z,29.00
2022-08-24T10:48:30.225Z,29.30
2022-08-24T10:58:28.813Z,30.10
2022-08-24T11:00:55.698Z,29.50
2022-08-24T11:03:28.615Z,28.90
2022-08-24T11:05:56.778Z,28.50
2022-08-24T11:08:35.423Z,29.60
2022-08-24T11:11:13.222Z,28.90
2022-08-24T11:14:00.491Z,29.50
2022-08-24T11:16:31.029Z,30.50
2022-08-24T11:18:59.082Z,30.50
2022-08-24T11:21:34.844Z,31.10
2022-08-24T11:24:10.811Z,30.60
2022-08-24T11:26:53.626Z,31.30
2022-08-24T11:58:10.389Z,30.10
2022-08-24T12:21:38.402Z,32.40
2022-08-24T12:40:15.540Z,33.80
2022-08-24T12:42:53.273Z,33.60
2022-08-24T12:45:26.803Z,32.60
2022-08-24T12:48:04.048Z,32.10
2022-08-24T12:50:30.935Z,31.90
2022-08-24T12:53:15.172Z,31.20
2022-08-24T12:56:06.842Z,31.40
2022-08-24T13:03:34.656Z,35.00
2022-08-24T13:08:42.508Z,35.50
2022-08-24T13:11:28.718Z,35.60
2022-08-24T13:13:55.388Z,37.00
2022-08-24T13:16:40.941Z,35.90
2022-08-24T13:19:16.850Z,35.50
2022-08-24T13:21:45.278Z,33.40
2022-08-24T13:26:43.357Z,33.90
2022-08-24T13:29:10.462Z,33.60
2022-08-24T13:34:10.135Z,35.80
2022-08-24T13:36:36.941Z,36.10
2022-08-24T13:39:15.947Z,36.30
2022-08-24T13:42:01.606Z,36.20
2022-08-24T13:44:43.801Z,36.50
2022-08-24T13:47:22.517Z,37.00
2022-08-24T13:49:52.731Z,36.50
2022-08-24T13:52:52.147Z,36.00
2022-08-24T13:58:19.734Z,37.60
2022-08-24T14:08:17.206Z,38.00
2022-08-24T14:11:19.407Z,38.00
2022-08-24T14:13:49.485Z,38.10
2022-08-24T14:16:56.456Z,38.10
2022-08-24T14:19:34.942Z,36.80
2022-08-24T14:22:10.870Z,36.10
2022-08-24T14:24:45.270Z,37.10
2022-08-24T14:27:33.042Z,36.10
2022-08-24T14:30:12.203Z,36.00
2022-08-24T14:32:40.922Z,36.90
2022-08-24T14:35:13.955Z,36.40
2022-08-24T14:37:57.256Z,37.10
2022-08-24T14:40:35.110Z,37.20
2022-08-24T14:43:22.311Z,36.50
2022-08-24T14:46:03.289Z,35.90
2022-08-24T14:48:55.471Z,34.30
2022-08-24T14:51:22.164Z,34.00
2022-08-24T14:53:58.332Z,35.10
2022-08-24T14:56:44.212Z,35.50
2022-08-24T14:59:30.207Z,36.20
2022-08-24T15:02:16.526Z,35.90
2022-08-24T15:04:47.083Z,36.70
2022-08-24T15:07:25.983Z,36.10
2022-08-24T15:09:53.328Z,37.00
2022-08-24T15:12:37.899Z,38.10
2022-08-24T15:15:11.009Z,38.40
2022-08-24T15:17:45.443Z,38.10
2022-08-24T15:20:18.890Z,38.00
2022-08-24T15:22:55.167Z,37.80
2022-08-24T15:25:40.718Z,38.10
2022-08-24T15:28:12.173Z,37.90
2022-08-24T15:30:40.221Z,36.50
2022-08-24T15:33:10.460Z,36.30
2022-08-24T15:38:18.095Z,33.70
2022-08-24T15:40:46.133Z,33.40
2022-08-24T15:43:18.932Z,32.50
2022-08-24T15:45:47.687Z,32.50
2022-08-24T15:48:16.582Z,34.10
2022-08-24T15:50:45.296Z,35.20
2022-08-24T15:53:30.957Z,35.50
2022-08-24T15:58:52.489Z,36.70
2022-08-24T16:01:40.047Z,37.00
2022-08-24T16:04:27.387Z,37.40
2022-08-24T16:06:54.417Z,37.40
2022-08-24T16:09:21.137Z,37.30
2022-08-24T16:11:51.274Z,36.60
2022-08-24T16:14:26.277Z,35.40
2022-08-24T16:16:56.454Z,35.30
2022-08-24T16:19:24.807Z,34.50
2022-08-24T16:21:51.490Z,34.80
2022-08-24T16:24:25.324Z,34.60
2022-08-24T16:26:57.385Z,34.30
2022-08-24T16:29:37.193Z,33.80
2022-08-24T16:32:15.907Z,33.20
2022-08-24T16:34:50.904Z,33.30
2022-08-24T16:37:19.648Z,33.30
2022-08-24T16:39:47.146Z,33.00
2022-08-24T16:42:21.594Z,31.30
2022-08-24T16:44:48.401Z,30.90
2022-08-24T16:47:15.124Z,30.40
2022-08-24T16:49:42.228Z,30.70
2022-08-24T16:54:35.975Z,29.70
2022-08-24T16:57:10.462Z,29.60
2022-08-24T17:02:04.672Z,29.10
2022-08-24T17:04:32.525Z,28.70
2022-08-24T17:06:59.254Z,28.70
2022-08-24T17:09:25.911Z,28.40
2022-08-24T17:11:52.573Z,28.90
2022-08-24T17:14:20.116Z,28.80
2022-08-24T17:16:47.012Z,29.00
2022-08-24T17:19:15.080Z,28.60
2022-08-24T17:21:43.789Z,28.60
2022-08-24T17:26:40.853Z,27.40
2022-08-24T17:29:19.148Z,28.30
2022-08-24T17:31:47.187Z,28.20
2022-08-24T17:34:14.060Z,28.10
2022-08-24T17:36:41.936Z,28.40
2022-08-24T17:39:09.933Z,27.10
2022-08-24T17:41:36.626Z,27.40
2022-08-24T17:54:16.814Z,26.50
2022-08-24T17:56:46.456Z,26.30
2022-08-24T18:01:47.236Z,26.20
2022-08-24T18:04:14.226Z,26.10
2022-08-24T18:06:40.902Z,26.00
2022-08-24T18:09:09.177Z,25.90
2022-08-24T18:11:35.974Z,25.80
2022-08-24T18:14:02.791Z,25.50
2022-08-24T18:18:56.832Z,25.80
2022-08-24T18:21:23.503Z,25.60
2022-08-24T18:23:50.791Z,25.40
2022-08-24T18:26:28.138Z,26.30
2022-08-24T18:28:57.042Z,25.10
2022-08-24T18:31:25.653Z,25.10
2022-08-24T18:33:52.478Z,24.80
2022-08-24T18:36:19.179Z,24.60
2022-08-24T18:38:45.846Z,24.90
2022-08-24T18:43:40.480Z,24.70
2022-08-24T18:46:08.334Z,25.00
2022-08-24T18:48:35.068Z,25.50
2022-08-24T18:53:29.440Z,24.50
2022-08-24T18:55:56.091Z,24.50
2022-08-24T18:58:22.768Z,24.30
2022-08-24T19:05:45.610Z,24.20
2022-08-24T19:08:12.439Z,24.10
2022-08-24T19:10:39.487Z,25.50
2022-08-24T19:15:40.349Z,24.00
2022-08-24T19:18:09.890Z,23.80
2022-08-24T19:20:37.215Z,25.20
2022-08-24T19:25:31.644Z,23.60
2022-08-24T19:27:58.674Z,23.80
2022-08-24T19:30:27.994Z,24.60
2022-08-24T19:32:57.998Z,23.50
2022-08-24T19:35:24.743Z,23.40
2022-08-24T19:37:51.435Z,24.50
2022-08-24T19:40:18.222Z,23.20
2022-08-24T19:42:49.662Z,23.00
2022-08-24T19:45:37.314Z,22.90
2022-08-24T19:48:04.714Z,22.90
2022-08-24T19:50:35.533Z,22.70
2022-08-24T19:53:02.907Z,22.70
2022-08-24T19:55:29.808Z,22.20
2022-08-24T19:58:06.131Z,22.10
2022-08-24T20:00:37.632Z,21.80
2022-08-24T20:03:06.172Z,21.70
2022-08-24T20:05:35.720Z,21.50
2022-08-24T20:08:03.711Z,22.30
2022-08-24T20:10:31.308Z,21.40
2022-08-24T20:12:57.975Z,22.00
2022-08-24T20:15:25.260Z,21.30
2022-08-24T20:17:52.417Z,21.50
2022-08-24T20:20:20.613Z,21.10
2022-08-24T20:22:47.337Z,21.50
2022-08-24T20:25:14.774Z,21.30
2022-08-24T20:27:42.853Z,21.50
2022-08-24T20:30:09.872Z,21.50
2022-08-24T20:32:36.529Z,21.50
2022-08-24T20:35:03.708Z,21.60
2022-08-24T20:37:31.926Z,21.30
2022-08-24T20:39:58.715Z,20.80
2022-08-24T20:42:26.758Z,20.70
2022-08-24T20:44:54.063Z,20.30
2022-08-24T20:47:20.982Z,20.20
2022-08-24T20:49:48.059Z,20.20
2022-08-24T20:52:14.906Z,20.50
2022-08-24T20:54:41.577Z,20.60
2022-08-24T20:57:09.345Z,20.60
2022-08-24T20:59:36.028Z,20.10
2022-08-24T21:02:03.485Z,20.60
2022-08-24T21:04:30.402Z,21.00
2022-08-24T21:06:57.260Z,20.80
2022-08-24T21:09:24.292Z,20.80
2022-08-24T21:11:51.056Z,19.70
2022-08-24T21:14:17.940Z,19.60
2022-08-24T21:16:44.681Z,19.20
2022-08-24T21:19:12.200Z,20.50
2022-08-24T21:21:42.301Z,19.20
2022-08-24T21:24:09.699Z,19.80
2022-08-24T21:26:36.488Z,18.80
2022-08-24T21:29:04.772Z,19.80
2022-08-24T21:31:31.536Z,19.60
2022-08-24T21:34:16.941Z,19.80
2022-08-24T21:36:44.992Z,19.60
2022-08-24T21:39:13.561Z,19.60
2022-08-24T21:41:40.647Z,20.50
2022-08-24T21:44:07.354Z,19.60
2022-08-24T21:46:36.261Z,19.90
2022-08-24T21:49:03.635Z,19.60
2022-08-24T21:51:30.692Z,19.50
2022-08-24T21:53:59.882Z,19.40
2022-08-24T21:56:28.049Z,19.00
2022-08-24T21:58:54.729Z,19.10
2022-08-24T22:01:21.592Z,18.60
2022-08-24T22:03:48.506Z,18.40
2022-08-24T22:06:15.351Z,19.50
2022-08-24T22:08:42.699Z,19.60
2022-08-24T22:11:10.112Z,19.80
2022-08-24T22:13:36.935Z,19.60
2022-08-24T22:16:03.958Z,19.00
2022-08-24T22:18:31.048Z,19.20
2022-08-24T22:20:57.784Z,19.30
2022-08-24T22:23:24.541Z,19.20
2022-08-24T22:25:52.257Z,19.10
2022-08-24T22:28:18.988Z,19.40
2022-08-24T22:30:48.217Z,18.80
2022-08-24T22:33:16.071Z,18.80
2022-08-24T23:34:45.651Z,17.40
2022-08-24T23:37:12.682Z,17.20
2022-08-24T23:39:39.599Z,17.10
2022-08-24T23:42:06.985Z,17.40
2022-08-24T23:44:34.028Z,16.90
2022-08-24T23:47:00.746Z,18.20
2022-08-24T23:49:28.555Z,17.90
2022-08-24T23:51:55.321Z,18.20
2022-08-24T23:54:22.440Z,17.80
2022-08-24T23:56:50.222Z,17.50
2022-08-24T23:59:19.206Z,17.40
